Aviation Digital Data Service (ADDS)

Output produced by METARs form (0748 UTC 18 February 2019)
found at http://www.aviationweather.gov/metar/data/
 
METAR text: EFIV 180720Z 18001KT CAVOK M16/M18 Q1009
Conditions at: EFIV (IVALO , FI) observed 0720 UTC 18 February 2019
Temperature: -16.0°C ( 3°F)
Dewpoint: -18.0°C (-0°F) [RH = 85%]
Pressure (altimeter): 29.79 inches Hg (1009.0 mb)
Winds: from the S (180 degrees) at 1 MPH (1 knots; 0.5 m/s)
Visibility: 6 or more miles (10+ km)
Ceiling: ceiling and visibility are OK
Clouds: unknown
Weather: no significant weather observed at this time

METAR text: EFIV 180650Z VRB01KT CAVOK M16/M18 Q1009
Conditions at: EFIV (IVALO , FI) observed 0650 UTC 18 February 2019
Temperature: -16.0°C ( 3°F)
Dewpoint: -18.0°C (-0°F) [RH = 85%]
Pressure (altimeter): 29.79 inches Hg (1009.0 mb)
Winds: variable direction winds at 1 MPH (1 knots; 0.5 m/s)
Visibility: 6 or more miles (10+ km)
Ceiling: ceiling and visibility are OK
Clouds: unknown
Weather: no significant weather observed at this time

METAR text: EFIV 180620Z VRB01KT CAVOK M16/M18 Q1010
Conditions at: EFIV (IVALO , FI) observed 0620 UTC 18 February 2019
Temperature: -16.0°C ( 3°F)
Dewpoint: -18.0°C (-0°F) [RH = 85%]
Pressure (altimeter): 29.82 inches Hg (1010.0 mb)
Winds: variable direction winds at 1 MPH (1 knots; 0.5 m/s)
Visibility: 6 or more miles (10+ km)
Ceiling: ceiling and visibility are OK
Clouds: unknown
Weather: no significant weather observed at this time

METAR text: EFIV 180550Z AUTO 23003KT 200V260 9999 -SHSN FEW041 SCT055 M16/M18 Q1010
Conditions at: EFIV (IVALO , FI) observed 0550 UTC 18 February 2019
Temperature: -16.0°C ( 3°F)
Dewpoint: -18.0°C (-0°F) [RH = 85%]
Pressure (altimeter): 29.82 inches Hg (1010.0 mb)
Winds: from the SW (230 degrees) at 3 MPH (3 knots; 1.5 m/s)
Visibility: 6 or more miles (10+ km)
Ceiling: at least 12,000 feet AGL
Clouds: few clouds at 4100 feet AGL
scattered clouds at 5500 feet AGL
Weather: -SHSN  (light snow showers)

METAR text: EFIV 180520Z AUTO 25002KT 9999 -SHSN OVC041 M16/M18 Q1010
Conditions at: EFIV (IVALO , FI) observed 0520 UTC 18 February 2019
Temperature: -16.0°C ( 3°F)
Dewpoint: -18.0°C (-0°F) [RH = 85%]
Pressure (altimeter): 29.82 inches Hg (1010.0 mb)
Winds: from the WSW (250 degrees) at 2 MPH (2 knots; 1.0 m/s)
Visibility: 6 or more miles (10+ km)
Ceiling: 4100 feet AGL
Clouds: overcast cloud deck at 4100 feet AGL
Weather: -SHSN  (light snow showers)

METAR text: EFIV 180450Z AUTO VRB02KT 9999 -SHSN NSC M17/M18 Q1011
Conditions at: EFIV (IVALO , FI) observed 0450 UTC 18 February 2019
Temperature: -17.0°C ( 1°F)
Dewpoint: -18.0°C (-0°F) [RH = 92%]
Pressure (altimeter): 29.85 inches Hg (1011.0 mb)
Winds: variable direction winds at 2 MPH (2 knots; 1.0 m/s)
Visibility: 6 or more miles (10+ km)
Ceiling: at least 12,000 feet AGL
Clouds: sky clear below 12,000 feet AGL
Weather: -SHSN  (light snow showers)

METAR text: EFIV 180420Z AUTO VRB01KT 9999 -SHSN NSC M17/M19 Q1011
Conditions at: EFIV (IVALO , FI) observed 0420 UTC 18 February 2019
Temperature: -17.0°C ( 1°F)
Dewpoint: -19.0°C (-2°F) [RH = 84%]
Pressure (altimeter): 29.85 inches Hg (1011.0 mb)
Winds: variable direction winds at 1 MPH (1 knots; 0.5 m/s)
Visibility: 6 or more miles (10+ km)
Ceiling: at least 12,000 feet AGL
Clouds: sky clear below 12,000 feet AGL
Weather: -SHSN  (light snow showers)

METAR text: EFIV 180350Z AUTO 24004KT CAVOK M17/M19 Q1012
Conditions at: EFIV (IVALO , FI) observed 0350 UTC 18 February 2019
Temperature: -17.0°C ( 1°F)
Dewpoint: -19.0°C (-2°F) [RH = 84%]
Pressure (altimeter): 29.88 inches Hg (1012.0 mb)
Winds: from the WSW (240 degrees) at 5 MPH (4 knots; 2.1 m/s)
Visibility: 6 or more miles (10+ km)
Ceiling: ceiling and visibility are OK
Clouds: unknown
Weather: no significant weather observed at this time

METAR text: EFIV 180320Z AUTO 24003KT CAVOK M18/M20 Q1012
Conditions at: EFIV (IVALO , FI) observed 0320 UTC 18 February 2019
Temperature: -18.0°C (-0°F)
Dewpoint: -20.0°C (-4°F) [RH = 84%]
Pressure (altimeter): 29.88 inches Hg (1012.0 mb)
Winds: from the WSW (240 degrees) at 3 MPH (3 knots; 1.5 m/s)
Visibility: 6 or more miles (10+ km)
Ceiling: ceiling and visibility are OK
Clouds: unknown
Weather: no significant weather observed at this time

METAR text: EFIV 180250Z AUTO 25004KT CAVOK M18/M20 Q1013
Conditions at: EFIV (IVALO , FI) observed 0250 UTC 18 February 2019
Temperature: -18.0°C (-0°F)
Dewpoint: -20.0°C (-4°F) [RH = 84%]
Pressure (altimeter): 29.91 inches Hg (1013.0 mb)
Winds: from the WSW (250 degrees) at 5 MPH (4 knots; 2.1 m/s)
Visibility: 6 or more miles (10+ km)
Ceiling: ceiling and visibility are OK
Clouds: unknown
Weather: no significant weather observed at this time

METAR text: EFIV 180220Z AUTO 25005KT CAVOK M18/M20 Q1013
Conditions at: EFIV (IVALO , FI) observed 0220 UTC 18 February 2019
Temperature: -18.0°C (-0°F)
Dewpoint: -20.0°C (-4°F) [RH = 84%]
Pressure (altimeter): 29.91 inches Hg (1013.0 mb)
Winds: from the WSW (250 degrees) at 6 MPH (5 knots; 2.6 m/s)
Visibility: 6 or more miles (10+ km)
Ceiling: ceiling and visibility are OK
Clouds: unknown
Weather: no significant weather observed at this time

METAR text: EFIV 180150Z AUTO VRB01KT CAVOK M18/M19 Q1013
Conditions at: EFIV (IVALO , FI) observed 0150 UTC 18 February 2019
Temperature: -18.0°C (-0°F)
Dewpoint: -19.0°C (-2°F) [RH = 92%]
Pressure (altimeter): 29.91 inches Hg (1013.0 mb)
Winds: variable direction winds at 1 MPH (1 knots; 0.5 m/s)
Visibility: 6 or more miles (10+ km)
Ceiling: ceiling and visibility are OK
Clouds: unknown
Weather: no significant weather observed at this time

METAR text: EFIV 180120Z AUTO 25005KT CAVOK M17/M19 Q1014
Conditions at: EFIV (IVALO , FI) observed 0120 UTC 18 February 2019
Temperature: -17.0°C ( 1°F)
Dewpoint: -19.0°C (-2°F) [RH = 84%]
Pressure (altimeter): 29.94 inches Hg (1014.0 mb)
Winds: from the WSW (250 degrees) at 6 MPH (5 knots; 2.6 m/s)
Visibility: 6 or more miles (10+ km)
Ceiling: ceiling and visibility are OK
Clouds: unknown
Weather: no significant weather observed at this time

METAR text: EFIV 180050Z AUTO 24003KT CAVOK M17/M18 Q1014
Conditions at: EFIV (IVALO , FI) observed 0050 UTC 18 February 2019
Temperature: -17.0°C ( 1°F)
Dewpoint: -18.0°C (-0°F) [RH = 92%]
Pressure (altimeter): 29.94 inches Hg (1014.0 mb)
Winds: from the WSW (240 degrees) at 3 MPH (3 knots; 1.5 m/s)
Visibility: 6 or more miles (10+ km)
Ceiling: ceiling and visibility are OK
Clouds: unknown
Weather: no significant weather observed at this time

METAR text: EFIV 180020Z AUTO 24005KT CAVOK M17/M18 Q1014
Conditions at: EFIV (IVALO , FI) observed 0020 UTC 18 February 2019
Temperature: -17.0°C ( 1°F)
Dewpoint: -18.0°C (-0°F) [RH = 92%]
Pressure (altimeter): 29.94 inches Hg (1014.0 mb)
Winds: from the WSW (240 degrees) at 6 MPH (5 knots; 2.6 m/s)
Visibility: 6 or more miles (10+ km)
Ceiling: ceiling and visibility are OK
Clouds: unknown
Weather: no significant weather observed at this time

METAR text: EFIV 172350Z AUTO VRB03KT CAVOK M16/M18 Q1014
Conditions at: EFIV (IVALO , FI) observed 2350 UTC 17 February 2019
Temperature: -16.0°C ( 3°F)
Dewpoint: -18.0°C (-0°F) [RH = 85%]
Pressure (altimeter): 29.94 inches Hg (1014.0 mb)
Winds: variable direction winds at 3 MPH (3 knots; 1.5 m/s)
Visibility: 6 or more miles (10+ km)
Ceiling: ceiling and visibility are OK
Clouds: unknown
Weather: no significant weather observed at this time

METAR text: EFIV 172320Z AUTO 23006KT CAVOK M15/M17 Q1014
Conditions at: EFIV (IVALO , FI) observed 2320 UTC 17 February 2019
Temperature: -15.0°C ( 5°F)
Dewpoint: -17.0°C ( 1°F) [RH = 85%]
Pressure (altimeter): 29.94 inches Hg (1014.0 mb)
Winds: from the SW (230 degrees) at 7 MPH (6 knots; 3.1 m/s)
Visibility: 6 or more miles (10+ km)
Ceiling: ceiling and visibility are OK
Clouds: unknown
Weather: no significant weather observed at this time

METAR text: EFIV 172250Z AUTO 24005KT CAVOK M14/M15 Q1014
Conditions at: EFIV (IVALO , FI) observed 2250 UTC 17 February 2019
Temperature: -14.0°C ( 7°F)
Dewpoint: -15.0°C ( 5°F) [RH = 92%]
Pressure (altimeter): 29.94 inches Hg (1014.0 mb)
Winds: from the WSW (240 degrees) at 6 MPH (5 knots; 2.6 m/s)
Visibility: 6 or more miles (10+ km)
Ceiling: ceiling and visibility are OK
Clouds: unknown
Weather: no significant weather observed at this time

METAR text: EFIV 172220Z AUTO VRB02KT CAVOK M13/M15 Q1014
Conditions at: EFIV (IVALO , FI) observed 2220 UTC 17 February 2019
Temperature: -13.0°C ( 9°F)
Dewpoint: -15.0°C ( 5°F) [RH = 85%]
Pressure (altimeter): 29.94 inches Hg (1014.0 mb)
Winds: variable direction winds at 2 MPH (2 knots; 1.0 m/s)
Visibility: 6 or more miles (10+ km)
Ceiling: ceiling and visibility are OK
Clouds: unknown
Weather: no significant weather observed at this time

METAR text: EFIV 172150Z AUTO 23004KT CAVOK M11/M13 Q1014
Conditions at: EFIV (IVALO , FI) observed 2150 UTC 17 February 2019
Temperature: -11.0°C (12°F)
Dewpoint: -13.0°C ( 9°F) [RH = 85%]
Pressure (altimeter): 29.94 inches Hg (1014.0 mb)
Winds: from the SW (230 degrees) at 5 MPH (4 knots; 2.1 m/s)
Visibility: 6 or more miles (10+ km)
Ceiling: ceiling and visibility are OK
Clouds: unknown
Weather: no significant weather observed at this time

METAR text: EFIV 172120Z AUTO VRB02KT CAVOK M10/M13 Q1014
Conditions at: EFIV (IVALO , FI) observed 2120 UTC 17 February 2019
Temperature: -10.0°C (14°F)
Dewpoint: -13.0°C ( 9°F) [RH = 79%]
Pressure (altimeter): 29.94 inches Hg (1014.0 mb)
Winds: variable direction winds at 2 MPH (2 knots; 1.0 m/s)
Visibility: 6 or more miles (10+ km)
Ceiling: ceiling and visibility are OK
Clouds: unknown
Weather: no significant weather observed at this time

METAR text: EFIV 172050Z AUTO VRB02KT 9999 -SHSN FEW029 BKN057 M10/M13 Q1014
Conditions at: EFIV (IVALO , FI) observed 2050 UTC 17 February 2019
Temperature: -10.0°C (14°F)
Dewpoint: -13.0°C ( 9°F) [RH = 79%]
Pressure (altimeter): 29.94 inches Hg (1014.0 mb)
Winds: variable direction winds at 2 MPH (2 knots; 1.0 m/s)
Visibility: 6 or more miles (10+ km)
Ceiling: 5700 feet AGL
Clouds: few clouds at 2900 feet AGL
broken clouds at 5700 feet AGL
Weather: -SHSN  (light snow showers)

METAR text: EFIV 172020Z 14003KT 9999 SCT019 OVC059 M08/M12 Q1013
Conditions at: EFIV (IVALO , FI) observed 2020 UTC 17 February 2019
Temperature: -8.0°C (18°F)
Dewpoint: -12.0°C (10°F) [RH = 73%]
Pressure (altimeter): 29.91 inches Hg (1013.0 mb)
Winds: from the SE (140 degrees) at 3 MPH (3 knots; 1.5 m/s)
Visibility: 6 or more miles (10+ km)
Ceiling: 5900 feet AGL
Clouds: scattered clouds at 1900 feet AGL
overcast cloud deck at 5900 feet AGL
Weather: no significant weather observed at this time

METAR text: EFIV 171950Z 23005KT 9999 BKN020 OVC064 M09/M12 Q1013
Conditions at: EFIV (IVALO , FI) observed 1950 UTC 17 February 2019
Temperature: -9.0°C (16°F)
Dewpoint: -12.0°C (10°F) [RH = 79%]
Pressure (altimeter): 29.91 inches Hg (1013.0 mb)
Winds: from the SW (230 degrees) at 6 MPH (5 knots; 2.6 m/s)
Visibility: 6 or more miles (10+ km)
Ceiling: 2000 feet AGL
Clouds: broken clouds at 2000 feet AGL
overcast cloud deck at 6400 feet AGL
Weather: no significant weather observed at this time

METAR text: EFIV 171920Z AUTO 24003KT 180V270 9999 -SHSN BKN023 BKN069 M10/M12 Q1013
Conditions at: EFIV (IVALO , FI) observed 1920 UTC 17 February 2019
Temperature: -10.0°C (14°F)
Dewpoint: -12.0°C (10°F) [RH = 85%]
Pressure (altimeter): 29.91 inches Hg (1013.0 mb)
Winds: from the WSW (240 degrees) at 3 MPH (3 knots; 1.5 m/s)
Visibility: 6 or more miles (10+ km)
Ceiling: 2300 feet AGL
Clouds: broken clouds at 2300 feet AGL
broken clouds at 6900 feet AGL
Weather: -SHSN  (light snow showers)

METAR text: EFIV 171850Z AUTO 23005KT 9999 FEW036 BKN069 M10/M12 Q1013
Conditions at: EFIV (IVALO , FI) observed 1850 UTC 17 February 2019
Temperature: -10.0°C (14°F)
Dewpoint: -12.0°C (10°F) [RH = 85%]
Pressure (altimeter): 29.91 inches Hg (1013.0 mb)
Winds: from the SW (230 degrees) at 6 MPH (5 knots; 2.6 m/s)
Visibility: 6 or more miles (10+ km)
Ceiling: 6900 feet AGL
Clouds: few clouds at 3600 feet AGL
broken clouds at 6900 feet AGL
Weather: no significant weather observed at this time

METAR text: EFIV 171820Z AUTO 24004KT 9999 BKN040 BKN068 M10/M12 Q1013
Conditions at: EFIV (IVALO , FI) observed 1820 UTC 17 February 2019
Temperature: -10.0°C (14°F)
Dewpoint: -12.0°C (10°F) [RH = 85%]
Pressure (altimeter): 29.91 inches Hg (1013.0 mb)
Winds: from the WSW (240 degrees) at 5 MPH (4 knots; 2.1 m/s)
Visibility: 6 or more miles (10+ km)
Ceiling: 4000 feet AGL
Clouds: broken clouds at 4000 feet AGL
broken clouds at 6800 feet AGL
Weather: no significant weather observed at this time

METAR text: EFIV 171750Z AUTO 21005KT 9999 BKN044 OVC074 M10/M13 Q1012
Conditions at: EFIV (IVALO , FI) observed 1750 UTC 17 February 2019
Temperature: -10.0°C (14°F)
Dewpoint: -13.0°C ( 9°F) [RH = 79%]
Pressure (altimeter): 29.88 inches Hg (1012.0 mb)
Winds: from the SSW (210 degrees) at 6 MPH (5 knots; 2.6 m/s)
Visibility: 6 or more miles (10+ km)
Ceiling: 4400 feet AGL
Clouds: broken clouds at 4400 feet AGL
overcast cloud deck at 7400 feet AGL
Weather: no significant weather observed at this time

METAR text: EFIV 171720Z 24003KT 9999 OVC044 M09/M12 Q1012
Conditions at: EFIV (IVALO , FI) observed 1720 UTC 17 February 2019
Temperature: -9.0°C (16°F)
Dewpoint: -12.0°C (10°F) [RH = 79%]
Pressure (altimeter): 29.88 inches Hg (1012.0 mb)
Winds: from the WSW (240 degrees) at 3 MPH (3 knots; 1.5 m/s)
Visibility: 6 or more miles (10+ km)
Ceiling: 4400 feet AGL
Clouds: overcast cloud deck at 4400 feet AGL
Weather: no significant weather observed at this time

METAR text: EFIV 171650Z VRB02KT 9999 OVC046 M09/M13 Q1013
Conditions at: EFIV (IVALO , FI) observed 1650 UTC 17 February 2019
Temperature: -9.0°C (16°F)
Dewpoint: -13.0°C ( 9°F) [RH = 73%]
Pressure (altimeter): 29.91 inches Hg (1013.0 mb)
Winds: variable direction winds at 2 MPH (2 knots; 1.0 m/s)
Visibility: 6 or more miles (10+ km)
Ceiling: 4600 feet AGL
Clouds: overcast cloud deck at 4600 feet AGL
Weather: no significant weather observed at this time

METAR text: EFIV 171620Z 22004KT 9999 OVC048 M10/M13 Q1013
Conditions at: EFIV (IVALO , FI) observed 1620 UTC 17 February 2019
Temperature: -10.0°C (14°F)
Dewpoint: -13.0°C ( 9°F) [RH = 79%]
Pressure (altimeter): 29.91 inches Hg (1013.0 mb)
Winds: from the SW (220 degrees) at 5 MPH (4 knots; 2.1 m/s)
Visibility: 6 or more miles (10+ km)
Ceiling: 4800 feet AGL
Clouds: overcast cloud deck at 4800 feet AGL
Weather: no significant weather observed at this time

METAR text: EFIV 171550Z 23007KT CAVOK M09/M13 Q1013
Conditions at: EFIV (IVALO , FI) observed 1550 UTC 17 February 2019
Temperature: -9.0°C (16°F)
Dewpoint: -13.0°C ( 9°F) [RH = 73%]
Pressure (altimeter): 29.91 inches Hg (1013.0 mb)
Winds: from the SW (230 degrees) at 8 MPH (7 knots; 3.6 m/s)
Visibility: 6 or more miles (10+ km)
Ceiling: ceiling and visibility are OK
Clouds: unknown
Weather: no significant weather observed at this time

METAR text: EFIV 171520Z AUTO 25003KT 9999 FEW045 BKN071 M09/M13 Q1013
Conditions at: EFIV (IVALO , FI) observed 1520 UTC 17 February 2019
Temperature: -9.0°C (16°F)
Dewpoint: -13.0°C ( 9°F) [RH = 73%]
Pressure (altimeter): 29.91 inches Hg (1013.0 mb)
Winds: from the WSW (250 degrees) at 3 MPH (3 knots; 1.5 m/s)
Visibility: 6 or more miles (10+ km)
Ceiling: 7100 feet AGL
Clouds: few clouds at 4500 feet AGL
broken clouds at 7100 feet AGL
Weather: no significant weather observed at this time

METAR text: EFIV 171450Z AUTO 25005KT 9999 FEW045 BKN079 M08/M13 Q1012
Conditions at: EFIV (IVALO , FI) observed 1450 UTC 17 February 2019
Temperature: -8.0°C (18°F)
Dewpoint: -13.0°C ( 9°F) [RH = 67%]
Pressure (altimeter): 29.88 inches Hg (1012.0 mb)
Winds: from the WSW (250 degrees) at 6 MPH (5 knots; 2.6 m/s)
Visibility: 6 or more miles (10+ km)
Ceiling: 7900 feet AGL
Clouds: few clouds at 4500 feet AGL
broken clouds at 7900 feet AGL
Weather: no significant weather observed at this time

METAR text: EFIV 171420Z AUTO 27005KT CAVOK M08/M13 Q1012
Conditions at: EFIV (IVALO , FI) observed 1420 UTC 17 February 2019
Temperature: -8.0°C (18°F)
Dewpoint: -13.0°C ( 9°F) [RH = 67%]
Pressure (altimeter): 29.88 inches Hg (1012.0 mb)
Winds: from the W (270 degrees) at 6 MPH (5 knots; 2.6 m/s)
Visibility: 6 or more miles (10+ km)
Ceiling: ceiling and visibility are OK
Clouds: unknown
Weather: no significant weather observed at this time

METAR text: EFIV 171350Z AUTO 31005KT 280V340 CAVOK M06/M12 Q1012
Conditions at: EFIV (IVALO , FI) observed 1350 UTC 17 February 2019
Temperature: -6.0°C (21°F)
Dewpoint: -12.0°C (10°F) [RH = 62%]
Pressure (altimeter): 29.88 inches Hg (1012.0 mb)
Winds: from the NW (310 degrees) at 6 MPH (5 knots; 2.6 m/s)
Visibility: 6 or more miles (10+ km)
Ceiling: ceiling and visibility are OK
Clouds: unknown
Weather: no significant weather observed at this time

METAR text: EFIV 171320Z 33006KT 280V360 CAVOK M06/M12 Q1011
Conditions at: EFIV (IVALO , FI) observed 1320 UTC 17 February 2019
Temperature: -6.0°C (21°F)
Dewpoint: -12.0°C (10°F) [RH = 62%]
Pressure (altimeter): 29.85 inches Hg (1011.0 mb)
Winds: from the NNW (330 degrees) at 7 MPH (6 knots; 3.1 m/s)
Visibility: 6 or more miles (10+ km)
Ceiling: ceiling and visibility are OK
Clouds: unknown
Weather: no significant weather observed at this time

METAR text: EFIV 171250Z 33006KT 300V360 CAVOK M06/M12 Q1011
Conditions at: EFIV (IVALO , FI) observed 1250 UTC 17 February 2019
Temperature: -6.0°C (21°F)
Dewpoint: -12.0°C (10°F) [RH = 62%]
Pressure (altimeter): 29.85 inches Hg (1011.0 mb)
Winds: from the NNW (330 degrees) at 7 MPH (6 knots; 3.1 m/s)
Visibility: 6 or more miles (10+ km)
Ceiling: ceiling and visibility are OK
Clouds: unknown
Weather: no significant weather observed at this time

METAR text: EFIV 171220Z 33010KT 9999 FEW020 M05/M11 Q1011
Conditions at: EFIV (IVALO , FI) observed 1220 UTC 17 February 2019
Temperature: -5.0°C (23°F)
Dewpoint: -11.0°C (12°F) [RH = 63%]
Pressure (altimeter): 29.85 inches Hg (1011.0 mb)
Winds: from the NNW (330 degrees) at 12 MPH (10 knots; 5.1 m/s)
Visibility: 6 or more miles (10+ km)
Ceiling: at least 12,000 feet AGL
Clouds: few clouds at 2000 feet AGL
Weather: no significant weather observed at this time

METAR text: EFIV 171150Z 34012KT 300V360 9999 FEW026 M05/M11 Q1010
Conditions at: EFIV (IVALO , FI) observed 1150 UTC 17 February 2019
Temperature: -5.0°C (23°F)
Dewpoint: -11.0°C (12°F) [RH = 63%]
Pressure (altimeter): 29.82 inches Hg (1010.0 mb)
Winds: from the NNW (340 degrees) at 14 MPH (12 knots; 6.2 m/s)
Visibility: 6 or more miles (10+ km)
Ceiling: at least 12,000 feet AGL
Clouds: few clouds at 2600 feet AGL
Weather: no significant weather observed at this time

METAR text: EFIV 171120Z 34013G25KT 300V020 9999 FEW026 M05/M11 Q1009
Conditions at: EFIV (IVALO , FI) observed 1120 UTC 17 February 2019
Temperature: -5.0°C (23°F)
Dewpoint: -11.0°C (12°F) [RH = 63%]
Pressure (altimeter): 29.79 inches Hg (1009.0 mb)
Winds: from the NNW (340 degrees) at 15 MPH (13 knots; 6.7 m/s)
gusting to 29 MPH (25 knots; 12.9 m/s)
Visibility: 6 or more miles (10+ km)
Ceiling: at least 12,000 feet AGL
Clouds: few clouds at 2600 feet AGL
Weather: no significant weather observed at this time

METAR text: EFIV 171050Z 33014G26KT 300V010 9999 FEW026 SCT044 M05/M11 Q1009
Conditions at: EFIV (IVALO , FI) observed 1050 UTC 17 February 2019
Temperature: -5.0°C (23°F)
Dewpoint: -11.0°C (12°F) [RH = 63%]
Pressure (altimeter): 29.79 inches Hg (1009.0 mb)
Winds: from the NNW (330 degrees) at 16 MPH (14 knots; 7.2 m/s)
gusting to 30 MPH (26 knots; 13.4 m/s)
Visibility: 6 or more miles (10+ km)
Ceiling: at least 12,000 feet AGL
Clouds: few clouds at 2600 feet AGL
scattered clouds at 4400 feet AGL
Weather: no significant weather observed at this time

METAR text: EFIV 171020Z 33012KT 290V360 9999 FEW027 SCT052 M05/M10 Q1008
Conditions at: EFIV (IVALO , FI) observed 1020 UTC 17 February 2019
Temperature: -5.0°C (23°F)
Dewpoint: -10.0°C (14°F) [RH = 68%]
Pressure (altimeter): 29.76 inches Hg (1008.0 mb)
Winds: from the NNW (330 degrees) at 14 MPH (12 knots; 6.2 m/s)
Visibility: 6 or more miles (10+ km)
Ceiling: at least 12,000 feet AGL
Clouds: few clouds at 2700 feet AGL
scattered clouds at 5200 feet AGL
Weather: no significant weather observed at this time

METAR text: EFIV 170950Z 32011KT CAVOK M05/M10 Q1007
Conditions at: EFIV (IVALO , FI) observed 0950 UTC 17 February 2019
Temperature: -5.0°C (23°F)
Dewpoint: -10.0°C (14°F) [RH = 68%]
Pressure (altimeter): 29.73 inches Hg (1007.0 mb)
Winds: from the NW (320 degrees) at 13 MPH (11 knots; 5.7 m/s)
Visibility: 6 or more miles (10+ km)
Ceiling: ceiling and visibility are OK
Clouds: unknown
Weather: no significant weather observed at this time

METAR text: EFIV 170920Z 32010KT 280V360 CAVOK M05/M10 Q1006
Conditions at: EFIV (IVALO , FI) observed 0920 UTC 17 February 2019
Temperature: -5.0°C (23°F)
Dewpoint: -10.0°C (14°F) [RH = 68%]
Pressure (altimeter): 29.70 inches Hg (1006.0 mb)
Winds: from the NW (320 degrees) at 12 MPH (10 knots; 5.1 m/s)
Visibility: 6 or more miles (10+ km)
Ceiling: ceiling and visibility are OK
Clouds: unknown
Weather: no significant weather observed at this time

METAR text: EFIV 170850Z 32011KT 280V350 9999 SCT037 M05/M10 Q1006
Conditions at: EFIV (IVALO , FI) observed 0850 UTC 17 February 2019
Temperature: -5.0°C (23°F)
Dewpoint: -10.0°C (14°F) [RH = 68%]
Pressure (altimeter): 29.70 inches Hg (1006.0 mb)
Winds: from the NW (320 degrees) at 13 MPH (11 knots; 5.7 m/s)
Visibility: 6 or more miles (10+ km)
Ceiling: at least 12,000 feet AGL
Clouds: scattered clouds at 3700 feet AGL
Weather: no significant weather observed at this time

METAR text: EFIV 170820Z 32010KT CAVOK M05/M09 Q1005
Conditions at: EFIV (IVALO , FI) observed 0820 UTC 17 February 2019
Temperature: -5.0°C (23°F)
Dewpoint: -9.0°C (16°F) [RH = 73%]
Pressure (altimeter): 29.68 inches Hg (1005.0 mb)
Winds: from the NW (320 degrees) at 12 MPH (10 knots; 5.1 m/s)
Visibility: 6 or more miles (10+ km)
Ceiling: ceiling and visibility are OK
Clouds: unknown
Weather: no significant weather observed at this time

METAR text: EFIV 170750Z 32010KT 290V350 9999 FEW046 M05/M10 Q1004
Conditions at: EFIV (IVALO , FI) observed 0750 UTC 17 February 2019
Temperature: -5.0°C (23°F)
Dewpoint: -10.0°C (14°F) [RH = 68%]
Pressure (altimeter): 29.65 inches Hg (1004.0 mb)
Winds: from the NW (320 degrees) at 12 MPH (10 knots; 5.1 m/s)
Visibility: 6 or more miles (10+ km)
Ceiling: at least 12,000 feet AGL
Clouds: few clouds at 4600 feet AGL
Weather: no significant weather observed at this time

METAR text: EFIV 170720Z 33010G20KT CAVOK M05/M09 Q1003
Conditions at: EFIV (IVALO , FI) observed 0720 UTC 17 February 2019
Temperature: -5.0°C (23°F)
Dewpoint: -9.0°C (16°F) [RH = 73%]
Pressure (altimeter): 29.62 inches Hg (1003.0 mb)
Winds: from the NNW (330 degrees) at 12 MPH (10 knots; 5.1 m/s)
gusting to 23 MPH (20 knots; 10.3 m/s)
Visibility: 6 or more miles (10+ km)
Ceiling: ceiling and visibility are OK
Clouds: unknown
Weather: no significant weather observed at this time

METAR text: EFIV 170650Z 33012KT 290V010 CAVOK M05/M10 Q1002
Conditions at: EFIV (IVALO , FI) observed 0650 UTC 17 February 2019
Temperature: -5.0°C (23°F)
Dewpoint: -10.0°C (14°F) [RH = 68%]
Pressure (altimeter): 29.59 inches Hg (1002.0 mb)
Winds: from the NNW (330 degrees) at 14 MPH (12 knots; 6.2 m/s)
Visibility: 6 or more miles (10+ km)
Ceiling: ceiling and visibility are OK
Clouds: unknown
Weather: no significant weather observed at this time

METAR text: EFIV 170620Z 34013KT 300V010 CAVOK M05/M09 Q1001
Conditions at: EFIV (IVALO , FI) observed 0620 UTC 17 February 2019
Temperature: -5.0°C (23°F)
Dewpoint: -9.0°C (16°F) [RH = 73%]
Pressure (altimeter): 29.56 inches Hg (1001.0 mb)
Winds: from the NNW (340 degrees) at 15 MPH (13 knots; 6.7 m/s)
Visibility: 6 or more miles (10+ km)
Ceiling: ceiling and visibility are OK
Clouds: unknown
Weather: no significant weather observed at this time

METAR text: EFIV 170550Z 34011KT CAVOK M05/M09 Q1000
Conditions at: EFIV (IVALO , FI) observed 0550 UTC 17 February 2019
Temperature: -5.0°C (23°F)
Dewpoint: -9.0°C (16°F) [RH = 73%]
Pressure (altimeter): 29.53 inches Hg (1000.0 mb)
Winds: from the NNW (340 degrees) at 13 MPH (11 knots; 5.7 m/s)
Visibility: 6 or more miles (10+ km)
Ceiling: ceiling and visibility are OK
Clouds: unknown
Weather: no significant weather observed at this time

METAR text: EFIV 170520Z 34014G24KT 9999 FEW024 M04/M09 Q1000
Conditions at: EFIV (IVALO , FI) observed 0520 UTC 17 February 2019
Temperature: -4.0°C (25°F)
Dewpoint: -9.0°C (16°F) [RH = 68%]
Pressure (altimeter): 29.53 inches Hg (1000.0 mb)
Winds: from the NNW (340 degrees) at 16 MPH (14 knots; 7.2 m/s)
gusting to 28 MPH (24 knots; 12.3 m/s)
Visibility: 6 or more miles (10+ km)
Ceiling: at least 12,000 feet AGL
Clouds: few clouds at 2400 feet AGL
Weather: no significant weather observed at this time

METAR text: EFIV 170450Z 34014G24KT 310V010 CAVOK M04/M08 Q0999
Conditions at: EFIV (IVALO , FI) observed 0450 UTC 17 February 2019
Temperature: -4.0°C (25°F)
Dewpoint: -8.0°C (18°F) [RH = 74%]
Pressure (altimeter): 29.50 inches Hg (999.0 mb)
Winds: from the NNW (340 degrees) at 16 MPH (14 knots; 7.2 m/s)
gusting to 28 MPH (24 knots; 12.3 m/s)
Visibility: 6 or more miles (10+ km)
Ceiling: ceiling and visibility are OK
Clouds: unknown
Weather: no significant weather observed at this time

METAR text: EFIV 170420Z 34014KT 310V010 9999 FEW022 SCT070 M04/M08 Q0997
Conditions at: EFIV (IVALO , FI) observed 0420 UTC 17 February 2019
Temperature: -4.0°C (25°F)
Dewpoint: -8.0°C (18°F) [RH = 74%]
Pressure (altimeter): 29.44 inches Hg (997.0 mb)
Winds: from the NNW (340 degrees) at 16 MPH (14 knots; 7.2 m/s)
Visibility: 6 or more miles (10+ km)
Ceiling: at least 12,000 feet AGL
Clouds: few clouds at 2200 feet AGL
scattered clouds at 7000 feet AGL
Weather: no significant weather observed at this time

METAR text: EFIV 170350Z 33015G26KT 290V010 CAVOK M04/M08 Q0996
Conditions at: EFIV (IVALO , FI) observed 0350 UTC 17 February 2019
Temperature: -4.0°C (25°F)
Dewpoint: -8.0°C (18°F) [RH = 74%]
Pressure (altimeter): 29.41 inches Hg (996.0 mb)
Winds: from the NNW (330 degrees) at 17 MPH (15 knots; 7.7 m/s)
gusting to 30 MPH (26 knots; 13.4 m/s)
Visibility: 6 or more miles (10+ km)
Ceiling: ceiling and visibility are OK
Clouds: unknown
Weather: no significant weather observed at this time

METAR text: EFIV 170320Z 33015G25KT 9999 -SHSN FEW022 M04/M08 Q0995
Conditions at: EFIV (IVALO , FI) observed 0320 UTC 17 February 2019
Temperature: -4.0°C (25°F)
Dewpoint: -8.0°C (18°F) [RH = 74%]
Pressure (altimeter): 29.38 inches Hg (995.0 mb)
Winds: from the NNW (330 degrees) at 17 MPH (15 knots; 7.7 m/s)
gusting to 29 MPH (25 knots; 12.9 m/s)
Visibility: 6 or more miles (10+ km)
Ceiling: at least 12,000 feet AGL
Clouds: few clouds at 2200 feet AGL
Weather: -SHSN  (light snow showers)

METAR text: EFIV 170250Z AUTO 34016G27KT 9999 SCT021 M04/M08 Q0995
Conditions at: EFIV (IVALO , FI) observed 0250 UTC 17 February 2019
Temperature: -4.0°C (25°F)
Dewpoint: -8.0°C (18°F) [RH = 74%]
Pressure (altimeter): 29.38 inches Hg (995.0 mb)
Winds: from the NNW (340 degrees) at 18 MPH (16 knots; 8.2 m/s)
gusting to 31 MPH (27 knots; 13.9 m/s)
Visibility: 6 or more miles (10+ km)
Ceiling: at least 12,000 feet AGL
Clouds: scattered clouds at 2100 feet AGL
Weather: no significant weather observed at this time

METAR text: EFIV 170220Z AUTO 34016G28KT 300V010 9999 SCT021 BKN064 M03/M07 Q0993
Conditions at: EFIV (IVALO , FI) observed 0220 UTC 17 February 2019
Temperature: -3.0°C (27°F)
Dewpoint: -7.0°C (19°F) [RH = 74%]
Pressure (altimeter): 29.32 inches Hg (993.0 mb)
Winds: from the NNW (340 degrees) at 18 MPH (16 knots; 8.2 m/s)
gusting to 32 MPH (28 knots; 14.4 m/s)
Visibility: 6 or more miles (10+ km)
Ceiling: 6400 feet AGL
Clouds: scattered clouds at 2100 feet AGL
broken clouds at 6400 feet AGL
Weather: no significant weather observed at this time

METAR text: EFIV 170150Z AUTO 34018G29KT 310V020 9999 -SHSN BKN020 M03/M07 Q0992
Conditions at: EFIV (IVALO , FI) observed 0150 UTC 17 February 2019
Temperature: -3.0°C (27°F)
Dewpoint: -7.0°C (19°F) [RH = 74%]
Pressure (altimeter): 29.29 inches Hg (992.0 mb)
Winds: from the NNW (340 degrees) at 21 MPH (18 knots; 9.3 m/s)
gusting to 33 MPH (29 knots; 14.9 m/s)
Visibility: 6 or more miles (10+ km)
Ceiling: 2000 feet AGL
Clouds: broken clouds at 2000 feet AGL
Weather: -SHSN  (light snow showers)

METAR text: EFIV 170120Z AUTO 34019G31KT 310V020 9999 -SHSN BKN020 M03/M07 Q0990
Conditions at: EFIV (IVALO , FI) observed 0120 UTC 17 February 2019
Temperature: -3.0°C (27°F)
Dewpoint: -7.0°C (19°F) [RH = 74%]
Pressure (altimeter): 29.23 inches Hg (990.0 mb)
Winds: from the NNW (340 degrees) at 22 MPH (19 knots; 9.8 m/s)
gusting to 36 MPH (31 knots; 15.9 m/s)
Visibility: 6 or more miles (10+ km)
Ceiling: 2000 feet AGL
Clouds: broken clouds at 2000 feet AGL
Weather: -SHSN  (light snow showers)

METAR text: EFIV 170050Z AUTO 34016G29KT 300V020 9999 -SHSN BKN021 BKN052 M02/M06 Q0989
Conditions at: EFIV (IVALO , FI) observed 0050 UTC 17 February 2019
Temperature: -2.0°C (28°F)
Dewpoint: -6.0°C (21°F) [RH = 74%]
Pressure (altimeter): 29.20 inches Hg (989.0 mb)
Winds: from the NNW (340 degrees) at 18 MPH (16 knots; 8.2 m/s)
gusting to 33 MPH (29 knots; 14.9 m/s)
Visibility: 6 or more miles (10+ km)
Ceiling: 2100 feet AGL
Clouds: broken clouds at 2100 feet AGL
broken clouds at 5200 feet AGL
Weather: -SHSN  (light snow showers)

METAR text: EFIV 170020Z AUTO 35016KT 320V020 9999 -SHSN BKN019 M02/M06 Q0988
Conditions at: EFIV (IVALO , FI) observed 0020 UTC 17 February 2019
Temperature: -2.0°C (28°F)
Dewpoint: -6.0°C (21°F) [RH = 74%]
Pressure (altimeter): 29.17 inches Hg (988.0 mb)
Winds: from the N (350 degrees) at 18 MPH (16 knots; 8.2 m/s)
Visibility: 6 or more miles (10+ km)
Ceiling: 1900 feet AGL
Clouds: broken clouds at 1900 feet AGL
Weather: -SHSN  (light snow showers)

METAR text: EFIV 162350Z AUTO 35017KT 310V010 9999 -SN FEW021 M02/M06 Q0986
Conditions at: EFIV (IVALO , FI) observed 2350 UTC 16 February 2019
Temperature: -2.0°C (28°F)
Dewpoint: -6.0°C (21°F) [RH = 74%]
Pressure (altimeter): 29.11 inches Hg (986.0 mb)
Winds: from the N (350 degrees) at 20 MPH (17 knots; 8.7 m/s)
Visibility: 6 or more miles (10+ km)
Ceiling: at least 12,000 feet AGL
Clouds: few clouds at 2100 feet AGL
Weather: -SN  (light snow)

METAR text: EFIV 162320Z AUTO 36021G34KT 7000 -SN BKN018 M02/M06 Q0984
Conditions at: EFIV (IVALO , FI) observed 2320 UTC 16 February 2019
Temperature: -2.0°C (28°F)
Dewpoint: -6.0°C (21°F) [RH = 74%]
Pressure (altimeter): 29.06 inches Hg (984.0 mb)
Winds: from the N (360 degrees) at 24 MPH (21 knots; 10.8 m/s)
gusting to 39 MPH (34 knots; 17.5 m/s)
Visibility: 4 miles ( 7 km)
Ceiling: 1800 feet AGL
Clouds: broken clouds at 1800 feet AGL
Weather: -SN  (light snow)

METAR text: EFIV 162250Z AUTO 36021G33KT 320V030 9999 3400 -SN OVC017 M02/M05 Q0983
Conditions at: EFIV (IVALO , FI) observed 2250 UTC 16 February 2019
Temperature: -2.0°C (28°F)
Dewpoint: -5.0°C (23°F) [RH = 80%]
Pressure (altimeter): 29.03 inches Hg (983.0 mb)
Winds: from the N (360 degrees) at 24 MPH (21 knots; 10.8 m/s)
gusting to 38 MPH (33 knots; 17.0 m/s)
Visibility: 6 or more miles (10+ km)
Ceiling: 1700 feet AGL
Clouds: overcast cloud deck at 1700 feet AGL
Weather: -SN  (light snow)

METAR text: EFIV 162220Z AUTO 35022G35KT 320V020 9999 4700 -SHSN OVC015 M01/M05 Q0981
Conditions at: EFIV (IVALO , FI) observed 2220 UTC 16 February 2019
Temperature: -1.0°C (30°F)
Dewpoint: -5.0°C (23°F) [RH = 74%]
Pressure (altimeter): 28.97 inches Hg (981.0 mb)
Winds: from the N (350 degrees) at 25 MPH (22 knots; 11.3 m/s)
gusting to 40 MPH (35 knots; 18.0 m/s)
Visibility: 6 or more miles (10+ km)
Ceiling: 1500 feet AGL
Clouds: overcast cloud deck at 1500 feet AGL
Weather: -SHSN  (light snow showers)

METAR text: EFIV 162150Z AUTO 33014G24KT 290V350 9999 -SHSN OVC015 M02/M05 Q0980
Conditions at: EFIV (IVALO , FI) observed 2150 UTC 16 February 2019
Temperature: -2.0°C (28°F)
Dewpoint: -5.0°C (23°F) [RH = 80%]
Pressure (altimeter): 28.94 inches Hg (980.0 mb)
Winds: from the NNW (330 degrees) at 16 MPH (14 knots; 7.2 m/s)
gusting to 28 MPH (24 knots; 12.3 m/s)
Visibility: 6 or more miles (10+ km)
Ceiling: 1500 feet AGL
Clouds: overcast cloud deck at 1500 feet AGL
Weather: -SHSN  (light snow showers)

METAR text: EFIV 162120Z AUTO 32015G26KT 9999 BKN015 M02/M05 Q0979
Conditions at: EFIV (IVALO , FI) observed 2120 UTC 16 February 2019
Temperature: -2.0°C (28°F)
Dewpoint: -5.0°C (23°F) [RH = 80%]
Pressure (altimeter): 28.91 inches Hg (979.0 mb)
Winds: from the NW (320 degrees) at 17 MPH (15 knots; 7.7 m/s)
gusting to 30 MPH (26 knots; 13.4 m/s)
Visibility: 6 or more miles (10+ km)
Ceiling: 1500 feet AGL
Clouds: broken clouds at 1500 feet AGL
Weather: no significant weather observed at this time

METAR text: EFIV 162050Z AUTO 33011KT 290V360 9999 -SN BKN014 BKN048 M02/M05 Q0977
Conditions at: EFIV (IVALO , FI) observed 2050 UTC 16 February 2019
Temperature: -2.0°C (28°F)
Dewpoint: -5.0°C (23°F) [RH = 80%]
Pressure (altimeter): 28.85 inches Hg (977.0 mb)
Winds: from the NNW (330 degrees) at 13 MPH (11 knots; 5.7 m/s)
Visibility: 6 or more miles (10+ km)
Ceiling: 1400 feet AGL
Clouds: broken clouds at 1400 feet AGL
broken clouds at 4800 feet AGL
Weather: -SN  (light snow)

METAR text: EFIV 162020Z AUTO 34014G25KT 9999 -SN OVC011 M02/M04 Q0976
Conditions at: EFIV (IVALO , FI) observed 2020 UTC 16 February 2019
Temperature: -2.0°C (28°F)
Dewpoint: -4.0°C (25°F) [RH = 86%]
Pressure (altimeter): 28.82 inches Hg (976.0 mb)
Winds: from the NNW (340 degrees) at 16 MPH (14 knots; 7.2 m/s)
gusting to 29 MPH (25 knots; 12.9 m/s)
Visibility: 6 or more miles (10+ km)
Ceiling: 1100 feet AGL
Clouds: overcast cloud deck at 1100 feet AGL
Weather: -SN  (light snow)

METAR text: EFIV 161950Z 32009KT 290V350 6000 -SHSN BKN009 OVC027 M00/M02 Q0975
Conditions at: EFIV (IVALO , FI) observed 1950 UTC 16 February 2019
Temperature: 0.0°C (32°F)
Dewpoint: -2.0°C (28°F) [RH = 86%]
Pressure (altimeter): 28.79 inches Hg (975.0 mb)
Winds: from the NW (320 degrees) at 10 MPH (9 knots; 4.6 m/s)
Visibility: 4 miles ( 6 km)
Ceiling: 900 feet AGL
Clouds: broken clouds at 900 feet AGL
overcast cloud deck at 2700 feet AGL
Weather: -SHSN  (light snow showers)

Forecast for: EFIV (IVALO , FI)
Text: TAF EFIV 180532Z 1806/1815 22005KT CAVOK
Forecast period: 0600 to 1000 UTC 18 February 2019
Forecast type: FROM: standard forecast or significant change
Winds: from the SW (220 degrees) at 6 MPH (5 knots; 2.6 m/s)
Visibility: 6 or more miles 10+ km)
Ceiling: unknown
Clouds: missing
Weather: NSW  (no significant weather)
Text: BECMG 1810/1812 3000 -SN
Forecast period: 1000 to 1500 UTC 18 February 2019
Forecast type: BECOMING: Conditions expected to become as follows by 1200 UTC 18 February 2019
Winds: from the SW (220 degrees) at 6 MPH (5 knots; 2.6 m/s)
Visibility: 1.86 miles (2.99 km)
Ceiling: unknown
Clouds: missing
Weather: -SN  (light snow)
Text: TEMPO 1812/1815 1300 SN BKN012
Forecast period: 1200 to 1500 UTC 18 February 2019
Forecast type: TEMPORARY: The following changes expected for less than half the time period
Visibility: 0.81 miles (1.30 km)
Ceiling: 1200 feet AGL
Clouds: broken clouds at 1200 feet AGL
Weather: SN  (moderate snow)